• Join FlightAware (Why Join?)
  • Login
  • US Flag GB Flag 
09:28 EDT


 

Airport Tracker/Info


-or-


 

Live Flight TrackerFlight Track Log ✈ FSR411 ✈ 18-Jun-2013 ✈ KDET - KCMI

Flight Track Log - Related Links

Times and Time Zones

All times are in EDT time to prevent confusion due to time zone crossing. See the FSR411 flight status page for this flight to view local times or setup timezone preferences in your user account.

Time Position Orientation Groundspeed Altitude Reporting Facility
EDT Latitude Longitude Course Direction KTS MPH feet Rate Location/Type
16:39 42.4794 -83.0578 337° Northwest 237 273 4,600  Level Cleveland Center
16:40 42.5108 -83.1408 297° West 268 308 8,300 3,600 Climbing Cleveland Center
16:41 42.5044 -83.2447 265° West 310 357 12,000 2,100 Climbing Cleveland Center
16:42 42.3983 -83.3247 209° Southwest 411 473 13,000 540 Climbing Cleveland Center
16:43 42.3011 -83.3850 205° Southwest 402 463 13,300 960 Climbing Cleveland Center
16:44 42.1992 -83.4506 205° Southwest 397 457 15,000 2,100 Climbing Cleveland Center
16:45 42.0975 -83.5189 207° Southwest 409 471 17,500 2,400 Climbing Cleveland Center
16:46 41.9914 -83.5894 206° Southwest 419 482 19,800 2,460 Climbing Cleveland Center
16:47 41.8853 -83.6569 205° Southwest 419 482 22,500 2,580 Climbing Cleveland Center
16:48 41.7792 -83.7269 206° Southwest 419 482 25,000 2,700 Climbing Cleveland Center
16:49 41.6731 -83.7997 207° Southwest 419 482 28,000 1,500 Climbing Cleveland Center
16:50 41.5728 -83.8781 210° Southwest 419 482 28,000  Level Cleveland Center
16:50 41.5439 -83.9022 212° Southwest 418 481 28,000  Level Chicago Center
16:51 41.4247 -83.9939 210° Southwest 413 475 28,000  Level Chicago Center
16:52 41.3253 -84.0722 211° Southwest 414 476 28,000  Level Chicago Center
16:53 41.2425 -84.1736 223° Southwest 412 474 28,000  Level Chicago Center
16:55 41.2050 -84.3092 250° West 394 453 28,000  Level Chicago Center
16:56 41.1689 -84.4464 251° West 392 451 28,000  Level Chicago Center
16:57 41.1356 -84.5806 252° West 386 444 28,000  Level Chicago Center
16:58 41.0933 -84.7433 251° West 387 445 28,000  Level Chicago Center
16:59 41.0594 -84.8772 251° West 383 441 28,000  Level Chicago Center
17:00 41.0244 -85.0106 251° West 384 442 28,000  Level Chicago Center
17:01 40.9897 -85.1439 251° West 383 441 28,000  Level Chicago Center
17:02 40.9536 -85.2764 250° West 383 441 28,000  Level Chicago Center
17:03 40.9147 -85.4086 249° West 383 441 28,000  Level Chicago Center
17:04 40.8767 -85.5378 249° West 380 437 28,000  Level Chicago Center
17:05 40.8308 -85.6933 249° West 378 435 28,000  Level Chicago Center
17:06 40.7944 -85.8231 250° West 377 434 28,000 -60 Level Chicago Center
17:07 40.7556 -85.9531 248° West 379 436 27,900 -540 Descending Chicago Center
17:08 40.7178 -86.0822 249° West 379 436 27,000 -1,020 Descending Chicago Center
17:09 40.6750 -86.2242 248° West 384 442 25,900 -1,020 Descending Chicago Center
17:10 40.6358 -86.3558 249° West 388 447 24,900 -960 Descending Chicago Center
17:11 40.5956 -86.4911 249° West 396 456 24,000 -480 Descending Chicago Center
17:12 40.5539 -86.6275 248° West 402 463 24,000 -780 Level Chicago Center
17:13 40.5053 -86.7883 248° West 398 458 22,400 -1,800 Descending Chicago Center
17:14 40.4656 -86.9197 248° West 392 451 20,400 -1,980 Descending Chicago Center
17:15 40.4261 -87.0464 248° West 381 438 18,400 -1,920 Descending Chicago Center
17:16 40.3883 -87.1722 249° West 375 432 16,400 -1,920 Descending Chicago Center
17:17 40.3506 -87.2936 248° West 365 420 14,400 -2,160 Descending Chicago Center
17:18 40.3067 -87.4339 248° West 349 402 12,000 -2,220 Descending Chicago Center
17:19 40.2750 -87.5367 248° West 302 348 9,900 -2,040 Descending Chicago Center
17:20 40.2458 -87.6297 248° West 283 326 7,900 -1,980 Descending Chicago Center
17:21 40.2175 -87.7225 248° West 277 319 5,900 -1,800 Descending Chicago Center
17:22 40.1872 -87.8161 247° West 280 322 4,200 -1,260 Descending Chicago Center
17:24 40.1558 -87.9131 247° West 277 319 3,400 -780 Descending Chicago Center
17:25 40.1084 -88.0166 237° Southwest  Level FlightAware Approximate
17:32 40.0333 -88.2667 252° West  Level FlightAware Approximate
17:33 40.0388 -88.2778 252° West  Level Estimated
17:34 40.0388 -88.2778 252° West  Level Estimated
17:35 40.0388 -88.2778 252° West  Level Estimated
17:36 40.0388 -88.2778 252° West  Level Estimated
17:37 40.0388 -88.2778 252° West  Level Estimated
17:38 40.0388 -88.2778 252° West  Level Estimated